Time;durP1;ratioP1;P1;durP2;ratioP2;P2;SDS_P1;SDS_P2;PMS_P1;PMS_P2;Temp;Humidity;BMP_temperature;BMP_pressure;BME280_temperature;BME280_humidity;BME280_pressure;Samples;Min_cycle;Max_cycle;Signal;HPM_P1;HPM_P2
2022/07/07 00:01:24;;;;;;;7.97;7.27;;;;;;;;;;4971713;28;20254;-84
2022/07/07 00:03:51;;;;;;;7.63;7.07;;;;;;;;;;4971721;28;20255;-83
2022/07/07 00:06:18;;;;;;;7.60;7.00;;;;;;;;;;4971715;28;20205;-84
2022/07/07 00:08:47;;;;;;;8.40;7.70;;;;;;;;;;4971325;28;20204;-83
2022/07/07 00:11:15;;;;;;;7.47;6.77;;;;;;;;;;4971826;28;20263;-84
2022/07/07 00:13:43;;;;;;;7.60;7.00;;;;;;;;;;4971512;28;20189;-84
2022/07/07 00:16:10;;;;;;;7.07;6.47;;;;;;;;;;4971490;28;20250;-84
2022/07/07 00:18:38;;;;;;;7.27;6.77;;;;;;;;;;4971308;28;20254;-83
2022/07/07 00:21:05;;;;;;;8.77;7.10;;;;;;;;;;4971545;28;20267;-83
2022/07/07 00:23:32;;;;;;;8.17;7.47;;;;;;;;;;4971314;28;20201;-84
2022/07/07 00:25:59;;;;;;;7.63;7.13;;;;;;;;;;4971339;28;20229;-84
2022/07/07 00:28:26;;;;;;;7.77;7.10;;;;;;;;;;4971051;28;20270;-83
2022/07/07 00:30:54;;;;;;;7.70;7.10;;;;;;;;;;4971114;28;20197;-84
2022/07/07 00:33:21;;;;;;;8.03;7.27;;;;;;;;;;4971514;28;20254;-84
2022/07/07 00:35:48;;;;;;;7.40;6.90;;;;;;;;;;4970971;28;20234;-84
2022/07/07 00:38:16;;;;;;;7.00;6.43;;;;;;;;;;4963212;28;20324;-83
2022/07/07 00:40:43;;;;;;;7.57;7.07;;;;;;;;;;4970887;28;20200;-84
2022/07/07 00:43:10;;;;;;;7.43;6.87;;;;;;;;;;4971151;28;20204;-84
2022/07/07 00:45:37;;;;;;;6.97;6.50;;;;;;;;;;4970644;28;20221;-83
2022/07/07 00:48:06;;;;;;;13.30;6.63;;;;;;;;;;4970101;28;20293;-84
2022/07/07 00:50:33;;;;;;;7.50;6.90;;;;;;;;;;4970866;28;20197;-83
2022/07/07 00:53:00;;;;;;;15.00;7.37;;;;;;;;;;4971250;28;20205;-83
2022/07/07 00:55:27;;;;;;;6.97;6.50;;;;;;;;;;4970472;28;20197;-83
2022/07/07 00:57:54;;;;;;;6.40;6.00;;;;;;;;;;4971103;28;20550;-84
2022/07/07 01:00:21;;;;;;;7.00;6.40;;;;;;;;;;4971194;28;20233;-84
2022/07/07 01:02:48;;;;;;;6.90;6.40;;;;;;;;;;4971120;28;20233;-83
2022/07/07 01:05:16;;;;;;;7.63;7.13;;;;;;;;;;4970222;28;20229;-83
2022/07/07 01:07:44;;;;;;;6.83;6.27;;;;;;;;;;4970687;28;20208;-84
2022/07/07 01:10:11;;;;;;;6.70;6.20;;;;;;;;;;4970741;28;20209;-84
2022/07/07 01:12:39;;;;;;;7.77;6.97;;;;;;;;;;4970729;28;20736;-84
2022/07/07 01:15:09;;;;;;;7.17;6.57;;;;;;;;;;4970549;28;20197;-84
2022/07/07 01:17:36;;;;;;;7.33;6.83;;;;;;;;;;4970875;28;20626;-83
2022/07/07 01:20:05;;;;;;;7.40;6.80;;;;;;;;;;4970633;28;20665;-84
2022/07/07 01:22:37;;;;;;;7.13;6.57;;;;;;;;;;4970323;28;20205;-84
2022/07/07 01:25:06;;;;;;;7.03;6.53;;;;;;;;;;4970260;28;20210;-84
2022/07/07 01:27:33;;;;;;;7.03;6.53;;;;;;;;;;4970481;28;20258;-83
2022/07/07 01:30:00;;;;;;;6.97;6.47;;;;;;;;;;4970512;28;20205;-84
2022/07/07 01:32:28;;;;;;;6.70;6.20;;;;;;;;;;4970637;28;20194;-83
2022/07/07 01:34:55;;;;;;;6.60;6.10;;;;;;;;;;4969893;28;20201;-83
2022/07/07 01:37:24;;;;;;;6.73;6.23;;;;;;;;;;4970180;28;20243;-83
2022/07/07 01:39:52;;;;;;;7.13;6.53;;;;;;;;;;4970231;28;20196;-83
2022/07/07 01:42:21;;;;;;;7.70;7.20;;;;;;;;;;4970523;28;20201;-84
2022/07/07 01:44:50;;;;;;;14.70;7.10;;;;;;;;;;4970067;28;20225;-83
2022/07/07 01:47:18;;;;;;;8.03;7.43;;;;;;;;;;4970187;28;20669;-83
2022/07/07 01:49:46;;;;;;;7.73;7.23;;;;;;;;;;4970046;28;20670;-84
2022/07/07 01:52:13;;;;;;;8.57;7.83;;;;;;;;;;4970063;28;20300;-84
2022/07/07 01:54:40;;;;;;;8.40;7.80;;;;;;;;;;4970028;28;20584;-83
2022/07/07 01:57:08;;;;;;;8.03;7.43;;;;;;;;;;4970331;28;20278;-84
2022/07/07 01:59:38;;;;;;;7.90;7.30;;;;;;;;;;4972638;28;20205;-84
2022/07/07 02:02:05;;;;;;;8.23;7.60;;;;;;;;;;4973434;28;20201;-83
2022/07/07 02:04:32;;;;;;;8.47;7.77;;;;;;;;;;4973517;28;20251;-84
2022/07/07 02:06:59;;;;;;;8.50;7.90;;;;;;;;;;4973705;28;20201;-83
2022/07/07 02:09:26;;;;;;;10.37;7.20;;;;;;;;;;4973487;28;20259;-84
2022/07/07 02:11:53;;;;;;;13.87;7.60;;;;;;;;;;4973624;28;20232;-84
2022/07/07 02:14:20;;;;;;;8.50;7.80;;;;;;;;;;4973447;28;20205;-84
2022/07/07 02:16:48;;;;;;;107.67;17.03;;;;;;;;;;4973726;28;20197;-83
2022/07/07 02:19:16;;;;;;;26.27;11.67;;;;;;;;;;4973076;28;20201;-84
2022/07/07 02:21:43;;;;;;;9.03;8.30;;;;;;;;;;4973372;28;20258;-84
2022/07/07 02:24:10;;;;;;;7.57;7.07;;;;;;;;;;4972867;28;20626;-84
2022/07/07 02:26:37;;;;;;;8.60;7.33;;;;;;;;;;4973362;28;20705;-84
2022/07/07 02:29:04;;;;;;;8.83;7.70;;;;;;;;;;4973097;28;20262;-84
2022/07/07 02:31:32;;;;;;;8.63;8.03;;;;;;;;;;4973065;28;20205;-84
2022/07/07 02:34:00;;;;;;;9.63;7.37;;;;;;;;;;4973106;28;20197;-84
2022/07/07 02:36:27;;;;;;;8.40;7.70;;;;;;;;;;4973271;28;20201;-84
2022/07/07 02:38:55;;;;;;;8.33;7.73;;;;;;;;;;4972602;28;20740;-84
2022/07/07 02:41:22;;;;;;;9.57;8.87;;;;;;;;;;4973160;28;20586;-84
2022/07/07 02:43:49;;;;;;;9.30;8.50;;;;;;;;;;4972609;28;20262;-84
2022/07/07 02:46:16;;;;;;;8.53;7.83;;;;;;;;;;4973035;28;20241;-84
2022/07/07 02:48:43;;;;;;;8.33;7.73;;;;;;;;;;4972649;28;20205;-84
2022/07/07 02:51:12;;;;;;;8.90;8.30;;;;;;;;;;4972791;28;20270;-84
2022/07/07 02:53:39;;;;;;;8.27;7.57;;;;;;;;;;4972821;28;20201;-84
2022/07/07 02:56:06;;;;;;;8.23;7.40;;;;;;;;;;4972683;28;20215;-84
2022/07/07 02:58:33;;;;;;;8.90;8.20;;;;;;;;;;4972859;28;20254;-84
2022/07/07 03:01:00;;;;;;;8.80;8.23;;;;;;;;;;4972406;28;20288;-84
2022/07/07 03:03:27;;;;;;;10.23;8.67;;;;;;;;;;4972907;28;20205;-83
2022/07/07 03:05:54;;;;;;;8.63;7.93;;;;;;;;;;4972371;28;20721;-83
2022/07/07 03:08:23;;;;;;;8.97;8.30;;;;;;;;;;4972471;28;20201;-83
2022/07/07 03:10:50;;;;;;;8.17;7.50;;;;;;;;;;4971366;28;20197;-84
2022/07/07 03:13:17;;;;;;;7.63;6.97;;;;;;;;;;4964727;28;20227;-84
2022/07/07 03:15:44;;;;;;;8.10;7.30;;;;;;;;;;4972266;28;20197;-84
2022/07/07 03:18:11;;;;;;;7.53;6.97;;;;;;;;;;4972681;28;20205;-84
2022/07/07 03:20:38;;;;;;;9.43;7.33;;;;;;;;;;4972149;28;20197;-84
2022/07/07 03:23:05;;;;;;;9.73;8.87;;;;;;;;;;4972297;28;20240;-84
2022/07/07 03:25:34;;;;;;;8.37;7.67;;;;;;;;;;4972379;28;20272;-84
2022/07/07 03:28:01;;;;;;;8.37;7.67;;;;;;;;;;4972010;28;20673;-84
2022/07/07 03:30:28;;;;;;;7.50;6.90;;;;;;;;;;4972402;28;20237;-84
2022/07/07 03:32:55;;;;;;;7.90;7.30;;;;;;;;;;4972830;28;20197;-84
2022/07/07 03:35:22;;;;;;;8.00;7.20;;;;;;;;;;4972263;28;20254;-83
2022/07/07 03:37:49;;;;;;;6.90;6.20;;;;;;;;;;4971609;28;20722;-83
2022/07/07 03:40:16;;;;;;;7.30;6.40;;;;;;;;;;4971715;28;20254;-83
2022/07/07 03:42:44;;;;;;;7.07;6.37;;;;;;;;;;4972317;28;20208;-83
2022/07/07 03:45:12;;;;;;;6.27;5.80;;;;;;;;;;4972020;28;20274;-83
2022/07/07 03:47:39;;;;;;;6.10;5.70;;;;;;;;;;4971910;28;20677;-83
2022/07/07 03:50:07;;;;;;;6.13;5.63;;;;;;;;;;4971869;28;20209;-82
2022/07/07 03:52:34;;;;;;;6.00;5.60;;;;;;;;;;4972226;28;20267;-82
2022/07/07 03:55:01;;;;;;;6.43;6.03;;;;;;;;;;4971915;28;20213;-83
2022/07/07 03:57:28;;;;;;;6.50;5.90;;;;;;;;;;4972121;28;20278;-83
2022/07/07 03:59:56;;;;;;;6.30;5.80;;;;;;;;;;4971349;28;20201;-83
2022/07/07 04:02:23;;;;;;;6.30;5.70;;;;;;;;;;4971559;28;20211;-83
2022/07/07 04:04:50;;;;;;;7.00;6.30;;;;;;;;;;4972037;28;20262;-83
2022/07/07 04:07:18;;;;;;;7.13;6.30;;;;;;;;;;4971765;28;20306;-83
2022/07/07 04:09:45;;;;;;;6.80;6.30;;;;;;;;;;4971381;28;20200;-83
2022/07/07 04:12:12;;;;;;;6.77;6.23;;;;;;;;;;4971397;28;20251;-83
2022/07/07 04:14:39;;;;;;;5.53;5.17;;;;;;;;;;4970877;28;20197;-83
2022/07/07 04:17:07;;;;;;;5.83;5.43;;;;;;;;;;4971341;28;20258;-92
2022/07/07 04:19:34;;;;;;;7.97;5.70;;;;;;;;;;4972700;28;20205;-93
2022/07/07 04:22:01;;;;;;;6.07;5.20;;;;;;;;;;4972395;28;20208;-95
2022/07/07 04:24:28;;;;;;;6.13;5.53;;;;;;;;;;4972891;28;20338;-90
2022/07/07 04:26:55;;;;;;;5.83;5.20;;;;;;;;;;4972114;28;20221;-86
2022/07/07 04:29:22;;;;;;;5.93;5.50;;;;;;;;;;4971497;28;20251;-85
2022/07/07 04:31:49;;;;;;;6.00;5.43;;;;;;;;;;4971500;28;20201;-86
2022/07/07 04:34:18;;;;;;;5.30;4.90;;;;;;;;;;4971602;28;20275;-86
2022/07/07 04:36:45;;;;;;;6.43;5.83;;;;;;;;;;4971722;28;20207;-85
2022/07/07 04:39:12;;;;;;;5.37;4.97;;;;;;;;;;4971231;28;20240;-85
2022/07/07 04:41:39;;;;;;;5.10;4.53;;;;;;;;;;4971372;28;20239;-86
2022/07/07 04:44:06;;;;;;;5.63;5.23;;;;;;;;;;4971640;28;20197;-86
2022/07/07 04:46:34;;;;;;;4.97;4.67;;;;;;;;;;4971059;28;20740;-86
2022/07/07 04:49:01;;;;;;;4.60;4.30;;;;;;;;;;4970278;28;20211;-85
2022/07/07 04:51:30;;;;;;;5.67;5.17;;;;;;;;;;4971528;28;20204;-86
2022/07/07 04:53:57;;;;;;;5.27;4.83;;;;;;;;;;4971032;28;20736;-86
2022/07/07 04:56:24;;;;;;;6.23;5.67;;;;;;;;;;4971198;28;20205;-86
2022/07/07 04:58:51;;;;;;;7.27;4.87;;;;;;;;;;4971240;28;20197;-86
2022/07/07 05:01:18;;;;;;;5.03;4.73;;;;;;;;;;4971310;28;20205;-86
2022/07/07 05:03:45;;;;;;;6.27;5.77;;;;;;;;;;4970935;28;20205;-86
2022/07/07 05:06:12;;;;;;;5.50;5.10;;;;;;;;;;4971151;28;20617;-86
2022/07/07 05:08:41;;;;;;;5.10;4.60;;;;;;;;;;4970796;28;20231;-85
2022/07/07 05:11:08;;;;;;;5.47;5.07;;;;;;;;;;4970914;28;20255;-86
2022/07/07 05:13:35;;;;;;;5.40;5.00;;;;;;;;;;4970816;28;20636;-86
2022/07/07 05:16:02;;;;;;;5.47;5.07;;;;;;;;;;4970741;28;20249;-86
2022/07/07 05:18:30;;;;;;;4.77;4.47;;;;;;;;;;4970769;28;20239;-85
2022/07/07 05:20:57;;;;;;;6.47;5.30;;;;;;;;;;4971052;28;20240;-85
2022/07/07 05:23:25;;;;;;;5.40;4.93;;;;;;;;;;4970808;28;20706;-85
2022/07/07 05:25:54;;;;;;;7.10;5.20;;;;;;;;;;4970417;28;20225;-86
2022/07/07 05:28:21;;;;;;;4.90;4.50;;;;;;;;;;4970814;28;20677;-86
2022/07/07 05:30:48;;;;;;;5.10;4.80;;;;;;;;;;4971007;28;20204;-86
2022/07/07 05:33:15;;;;;;;5.43;5.03;;;;;;;;;;4970024;28;20228;-86
2022/07/07 05:35:42;;;;;;;5.83;5.30;;;;;;;;;;4970677;28;20354;-87
2022/07/07 05:38:09;;;;;;;5.90;4.97;;;;;;;;;;4970614;28;20241;-86
2022/07/07 05:40:36;;;;;;;5.17;4.87;;;;;;;;;;4970606;28;20616;-86
2022/07/07 05:43:05;;;;;;;5.70;4.80;;;;;;;;;;4970824;28;20205;-86
2022/07/07 05:45:32;;;;;;;4.87;4.53;;;;;;;;;;4970788;28;20558;-86
2022/07/07 05:47:59;;;;;;;5.03;4.53;;;;;;;;;;4970828;28;20686;-86
2022/07/07 05:50:26;;;;;;;4.90;4.60;;;;;;;;;;4970134;28;20251;-87
2022/07/07 05:52:53;;;;;;;5.60;5.20;;;;;;;;;;4970377;28;20254;-85
2022/07/07 05:55:20;;;;;;;5.60;5.20;;;;;;;;;;4970379;28;20611;-86
2022/07/07 05:57:47;;;;;;;6.87;5.83;;;;;;;;;;4970363;28;20635;-85
2022/07/07 06:00:17;;;;;;;8.33;5.57;;;;;;;;;;4970094;28;20204;-86
2022/07/07 06:02:44;;;;;;;5.43;5.03;;;;;;;;;;4970268;28;20209;-86
2022/07/07 06:05:11;;;;;;;6.27;5.87;;;;;;;;;;4970262;28;20642;-86
2022/07/07 06:07:39;;;;;;;5.23;4.73;;;;;;;;;;4970196;28;20251;-86
2022/07/07 06:10:06;;;;;;;7.40;4.67;;;;;;;;;;4970035;28;20200;-86
2022/07/07 06:12:34;;;;;;;4.83;4.50;;;;;;;;;;4970051;28;20193;-85
2022/07/07 06:15:01;;;;;;;5.20;4.70;;;;;;;;;;4970320;28;20213;-86
2022/07/07 06:17:29;;;;;;;5.77;4.30;;;;;;;;;;4970526;28;20240;-86
2022/07/07 06:19:56;;;;;;;4.50;4.20;;;;;;;;;;4970246;28;20255;-86
2022/07/07 06:22:23;;;;;;;4.97;4.57;;;;;;;;;;4970375;28;20278;-86
2022/07/07 06:24:50;;;;;;;4.93;4.53;;;;;;;;;;4969781;28;20696;-86
2022/07/07 06:27:17;;;;;;;5.20;4.37;;;;;;;;;;4962645;28;20225;-86
2022/07/07 06:29:44;;;;;;;4.90;4.60;;;;;;;;;;4969900;28;20216;-85
2022/07/07 06:32:14;;;;;;;6.63;4.23;;;;;;;;;;4970286;28;20628;-86
2022/07/07 06:34:43;;;;;;;5.47;4.50;;;;;;;;;;4969900;28;20267;-86
2022/07/07 06:37:10;;;;;;;4.70;4.20;;;;;;;;;;4969858;28;20711;-86
2022/07/07 06:39:37;;;;;;;6.57;3.93;;;;;;;;;;4964707;28;20727;-86
2022/07/07 06:42:05;;;;;;;4.63;4.30;;;;;;;;;;4970116;28;20204;-86
2022/07/07 06:44:32;;;;;;;5.53;5.13;;;;;;;;;;4969767;28;20631;-86
2022/07/07 06:46:59;;;;;;;4.03;3.73;;;;;;;;;;4972726;28;20286;-86
2022/07/07 06:49:26;;;;;;;4.27;3.97;;;;;;;;;;4973213;28;20201;-86
2022/07/07 06:51:55;;;;;;;4.37;4.07;;;;;;;;;;4973589;28;20234;-86
2022/07/07 06:54:23;;;;;;;4.43;4.13;;;;;;;;;;4972897;28;20255;-86
2022/07/07 06:56:50;;;;;;;4.10;3.80;;;;;;;;;;4973331;28;20197;-86
2022/07/07 06:59:17;;;;;;;3.77;3.47;;;;;;;;;;4972613;28;20201;-86
2022/07/07 07:01:45;;;;;;;4.20;3.90;;;;;;;;;;4972880;28;20250;-86
2022/07/07 07:04:13;;;;;;;3.70;3.50;;;;;;;;;;4972783;28;20578;-86
2022/07/07 07:06:41;;;;;;;5.43;3.60;;;;;;;;;;4972792;28;20232;-87
2022/07/07 07:09:09;;;;;;;4.03;3.73;;;;;;;;;;4972547;28;20204;-86
2022/07/07 07:11:37;;;;;;;3.47;3.17;;;;;;;;;;4972517;28;20197;-86
2022/07/07 07:14:04;;;;;;;3.80;3.60;;;;;;;;;;4972862;28;20201;-86
2022/07/07 07:16:31;;;;;;;3.43;3.23;;;;;;;;;;4972605;28;20201;-86
2022/07/07 07:18:58;;;;;;;2.93;2.73;;;;;;;;;;4972642;28;20205;-86
2022/07/07 07:21:25;;;;;;;3.17;2.97;;;;;;;;;;4972529;28;20270;-87
2022/07/07 07:23:52;;;;;;;3.37;3.00;;;;;;;;;;4972817;28;20587;-86
2022/07/07 07:26:21;;;;;;;3.40;3.10;;;;;;;;;;4972797;28;20630;-87
2022/07/07 07:28:48;;;;;;;3.23;3.03;;;;;;;;;;4972547;28;20208;-87
2022/07/07 07:31:15;;;;;;;3.40;3.20;;;;;;;;;;4972485;28;20201;-87
2022/07/07 07:33:42;;;;;;;3.57;3.27;;;;;;;;;;4972866;28;20201;-87
2022/07/07 07:36:10;;;;;;;3.40;3.20;;;;;;;;;;4972706;28;20235;-87
2022/07/07 07:38:37;;;;;;;3.30;3.00;;;;;;;;;;4972192;28;20236;-86
2022/07/07 07:41:05;;;;;;;3.30;3.10;;;;;;;;;;4972350;28;20291;-86
2022/07/07 07:43:33;;;;;;;4.37;3.13;;;;;;;;;;4972265;28;20259;-87
2022/07/07 07:46:00;;;;;;;3.73;3.43;;;;;;;;;;4972335;28;20201;-86
2022/07/07 07:48:27;;;;;;;3.97;3.57;;;;;;;;;;4972253;28;20274;-86
2022/07/07 07:50:54;;;;;;;3.50;3.30;;;;;;;;;;4972272;28;20258;-86
2022/07/07 07:53:21;;;;;;;3.83;3.50;;;;;;;;;;4972330;28;20259;-86
2022/07/07 07:55:50;;;;;;;4.07;3.77;;;;;;;;;;4971674;28;20248;-86
2022/07/07 07:58:17;;;;;;;3.50;3.30;;;;;;;;;;4972056;28;20208;-87
2022/07/07 08:01:00;;;;;;;6.47;3.90;;;;;;;;;;5110077;27;20553;-87
2022/07/07 08:03:27;;;;;;;4.07;3.07;;;;;;;;;;5109979;28;20256;-87
2022/07/07 08:05:54;;;;;;;3.90;3.60;;;;;;;;;;5109886;28;20253;-87
2022/07/07 08:08:21;;;;;;;3.97;3.37;;;;;;;;;;5109957;28;20204;-87
2022/07/07 08:10:48;;;;;;;4.07;3.77;;;;;;;;;;5110198;28;20621;-87
2022/07/07 08:13:15;;;;;;;3.53;3.33;;;;;;;;;;5110141;28;20241;-87
2022/07/07 08:15:42;;;;;;;3.43;3.23;;;;;;;;;;5109744;28;20199;-87
2022/07/07 08:18:10;;;;;;;6.17;3.60;;;;;;;;;;5109767;28;20195;-87
2022/07/07 08:20:38;;;;;;;4.20;3.90;;;;;;;;;;5109740;28;20230;-87
2022/07/07 08:23:05;;;;;;;4.60;4.27;;;;;;;;;;5109694;28;20735;-87
2022/07/07 08:25:33;;;;;;;3.43;3.23;;;;;;;;;;5109760;28;20292;-87
2022/07/07 08:28:00;;;;;;;3.93;3.63;;;;;;;;;;5109873;28;20571;-87
2022/07/07 08:30:27;;;;;;;3.33;3.13;;;;;;;;;;5109719;28;20219;-88
2022/07/07 08:32:54;;;;;;;3.87;3.23;;;;;;;;;;5109309;28;20196;-87
2022/07/07 08:35:23;;;;;;;3.63;3.33;;;;;;;;;;5109424;28;20212;-87
2022/07/07 08:37:50;;;;;;;3.53;3.33;;;;;;;;;;5109636;28;20195;-87
2022/07/07 08:40:17;;;;;;;3.83;3.10;;;;;;;;;;5109197;28;20216;-87
2022/07/07 08:42:44;;;;;;;3.03;2.83;;;;;;;;;;5109408;28;20204;-87
2022/07/07 08:45:11;;;;;;;3.40;3.20;;;;;;;;;;5109160;28;20253;-88
2022/07/07 08:47:38;;;;;;;4.07;3.27;;;;;;;;;;5109449;28;20668;-86
2022/07/07 08:50:07;;;;;;;3.70;3.50;;;;;;;;;;5109354;28;20191;-87
2022/07/07 08:52:35;;;;;;;3.97;3.60;;;;;;;;;;5108997;28;20192;-87
2022/07/07 08:55:02;;;;;;;4.03;3.73;;;;;;;;;;5108676;28;20192;-87
2022/07/07 08:57:30;;;;;;;4.30;3.20;;;;;;;;;;5109281;28;20187;-87
2022/07/07 08:59:57;;;;;;;3.90;3.53;;;;;;;;;;5108581;28;20271;-87
2022/07/07 09:02:24;;;;;;;3.50;3.20;;;;;;;;;;5108964;28;20196;-87
2022/07/07 09:04:51;;;;;;;4.03;3.72;;;;;;;;;;5108700;28;20701;-88
2022/07/07 09:07:19;;;;;;;3.58;3.38;;;;;;;;;;5109235;28;20192;-88
2022/07/07 09:09:49;;;;;;;3.45;3.25;;;;;;;;;;5108861;28;20187;-87
2022/07/07 09:12:18;;;;;;;3.22;3.03;;;;;;;;;;5095659;28;20263;-87
2022/07/07 09:14:47;;;;;;;4.50;4.18;;;;;;;;;;5094848;28;20686;-87
2022/07/07 09:17:19;;;;;;;2.78;2.65;;;;;;;;;;5095435;28;20249;-88
2022/07/07 09:20:00;;;;;;;7.00;3.75;;;;;;;;;;5095159;28;20281;-88
2022/07/07 09:22:47;;;;;;;3.42;3.22;;;;;;;;;;5095332;28;20184;-88
2022/07/07 09:25:17;;;;;;;5.82;3.15;;;;;;;;;;5095029;28;20267;-87
2022/07/07 09:27:55;;;;;;;3.60;3.30;;;;;;;;;;5095266;28;20204;-88
2022/07/07 09:30:32;;;;;;;3.33;3.13;;;;;;;;;;5094941;28;20655;-85
2022/07/07 09:33:01;;;;;;;3.55;3.20;;;;;;;;;;5095168;28;20180;-85
2022/07/07 09:38:14;;;;;;;3.63;3.33;;;;;;;;;;5095250;28;20196;-85
2022/07/07 09:40:52;;;;;;;3.22;3.03;;;;;;;;;;5094736;28;20696;-85
2022/07/07 09:43:19;;;;;;;3.53;3.20;;;;;;;;;;5095218;28;20184;-86
2022/07/07 09:45:48;;;;;;;3.42;3.22;;;;;;;;;;5094727;28;20203;-84
2022/07/07 09:48:15;;;;;;;3.03;2.83;;;;;;;;;;5094959;28;20200;-86
2022/07/07 09:50:42;;;;;;;3.78;3.47;;;;;;;;;;5094554;28;20196;-85
2022/07/07 09:53:10;;;;;;;3.33;3.10;;;;;;;;;;5094815;28;20204;-85
2022/07/07 09:55:37;;;;;;;3.35;3.05;;;;;;;;;;5094330;28;20249;-85
2022/07/07 09:58:06;;;;;;;3.55;3.25;;;;;;;;;;5094331;28;20203;-86
2022/07/07 10:00:33;;;;;;;2.78;2.58;;;;;;;;;;5094104;28;20326;-85
2022/07/07 10:03:01;;;;;;;3.13;2.92;;;;;;;;;;5094646;28;20274;-86
2022/07/07 10:05:28;;;;;;;2.88;2.70;;;;;;;;;;5094230;28;20192;-85
2022/07/07 10:07:57;;;;;;;3.38;3.08;;;;;;;;;;5094562;28;20557;-86
2022/07/07 10:10:24;;;;;;;3.40;3.20;;;;;;;;;;5094454;28;20192;-85
2022/07/07 10:12:53;;;;;;;3.28;3.03;;;;;;;;;;5093956;28;20249;-85
2022/07/07 10:15:22;;;;;;;3.38;3.08;;;;;;;;;;5094073;28;20587;-86
2022/07/07 10:17:53;;;;;;;2.97;2.78;;;;;;;;;;5094219;28;20230;-88
2022/07/07 10:20:20;;;;;;;3.92;3.00;;;;;;;;;;5093652;28;20293;-86
2022/07/07 10:22:47;;;;;;;4.55;3.08;;;;;;;;;;5093177;28;20692;-86
2022/07/07 10:25:15;;;;;;;3.15;2.95;;;;;;;;;;5093964;28;20207;-85
2022/07/07 10:27:43;;;;;;;3.08;2.88;;;;;;;;;;5094279;28;20204;-85
2022/07/07 10:30:11;;;;;;;31.77;3.45;;;;;;;;;;5093734;28;20193;-85
2022/07/07 10:32:42;;;;;;;3.80;3.08;;;;;;;;;;5094514;28;20207;-86
2022/07/07 10:35:11;;;;;;;4.03;3.05;;;;;;;;;;5093974;28;20184;-85
2022/07/07 10:37:43;;;;;;;3.88;2.63;;;;;;;;;;5094050;28;20253;-85
2022/07/07 10:40:13;;;;;;;3.42;3.22;;;;;;;;;;5093441;28;20206;-86
2022/07/07 10:43:08;;;;;;;3.13;2.92;;;;;;;;;;5094481;28;20685;-86
2022/07/07 10:45:35;;;;;;;4.00;3.00;;;;;;;;;;5093563;28;20251;-86
2022/07/07 10:48:07;;;;;;;3.17;2.97;;;;;;;;;;5093211;28;20196;-86
2022/07/07 10:50:35;;;;;;;3.72;2.80;;;;;;;;;;5093645;28;20184;-86
2022/07/07 10:53:02;;;;;;;3.03;2.83;;;;;;;;;;5093530;28;20196;-86
2022/07/07 10:55:52;;;;;;;2.90;2.70;;;;;;;;;;5093176;28;20665;-85
2022/07/07 10:58:56;;;;;;;3.00;2.60;;;;;;;;;;5093438;28;20196;-85
2022/07/07 11:01:24;;;;;;;2.85;2.65;;;;;;;;;;5093216;28;20706;-86
2022/07/07 11:03:53;;;;;;;3.00;2.80;;;;;;;;;;5093258;28;20626;-86
2022/07/07 11:06:20;;;;;;;3.08;2.53;;;;;;;;;;5092966;28;20196;-86
2022/07/07 11:08:58;;;;;;;4.38;2.42;;;;;;;;;;5093102;28;20648;-86
2022/07/07 11:11:25;;;;;;;3.10;2.80;;;;;;;;;;5093172;28;20196;-86
2022/07/07 11:14:04;;;;;;;4.03;3.33;;;;;;;;;;5093138;28;20245;-86
2022/07/07 11:16:31;;;;;;;3.00;2.55;;;;;;;;;;5092809;28;20192;-85
2022/07/07 11:19:03;;;;;;;3.15;2.92;;;;;;;;;;5093110;28;20222;-86
2022/07/07 11:21:39;;;;;;;4.68;2.85;;;;;;;;;;5093210;28;20211;-86
2022/07/07 11:24:18;;;;;;;3.38;3.17;;;;;;;;;;5092902;28;20225;-86
2022/07/07 11:26:55;;;;;;;3.08;2.88;;;;;;;;;;5092756;28;20188;-85
2022/07/07 11:29:22;;;;;;;4.50;3.33;;;;;;;;;;5093117;28;20208;-85
2022/07/07 11:31:49;;;;;;;3.80;3.50;;;;;;;;;;5093069;28;20656;-85
2022/07/07 11:34:18;;;;;;;3.63;3.42;;;;;;;;;;5092414;28;20211;-86
2022/07/07 11:36:45;;;;;;;5.30;3.78;;;;;;;;;;5093010;28;20230;-84
2022/07/07 11:39:12;;;;;;;4.00;3.70;;;;;;;;;;5093133;28;20230;-86
2022/07/07 11:41:42;;;;;;;4.88;3.60;;;;;;;;;;5092636;28;20251;-86
2022/07/07 11:44:18;;;;;;;5.68;5.18;;;;;;;;;;5092620;28;20195;-85
2022/07/07 11:46:48;;;;;;;5.32;4.85;;;;;;;;;;5092562;28;20275;-86
2022/07/07 11:49:17;;;;;;;3.80;3.28;;;;;;;;;;5092415;28;20287;-85
2022/07/07 11:51:45;;;;;;;3.10;2.90;;;;;;;;;;5092716;28;20196;-85
2022/07/07 11:54:12;;;;;;;3.60;3.17;;;;;;;;;;5092262;28;20200;-85
2022/07/07 11:56:40;;;;;;;3.75;3.30;;;;;;;;;;5092629;28;20238;-85
2022/07/07 11:59:08;;;;;;;3.28;3.00;;;;;;;;;;5092091;28;20603;-84
2022/07/07 12:01:36;;;;;;;3.13;2.92;;;;;;;;;;5092113;28;20291;-85
2022/07/07 12:04:14;;;;;;;3.67;3.47;;;;;;;;;;5092063;28;20251;-86
2022/07/07 12:06:43;;;;;;;3.78;3.47;;;;;;;;;;5092644;28;20249;-86
2022/07/07 12:09:11;;;;;;;3.53;3.22;;;;;;;;;;5092712;28;20211;-86
2022/07/07 12:11:38;;;;;;;3.92;3.55;;;;;;;;;;5092196;28;20193;-85
2022/07/07 12:14:07;;;;;;;4.20;3.80;;;;;;;;;;5092188;28;20296;-86
2022/07/07 12:16:44;;;;;;;3.45;3.25;;;;;;;;;;5092459;28;20261;-86
2022/07/07 12:19:11;;;;;;;3.63;3.33;;;;;;;;;;5092177;28;20657;-85
2022/07/07 12:21:45;;;;;;;7.40;3.15;;;;;;;;;;5092307;28;20297;-86
2022/07/07 12:24:15;;;;;;;3.80;3.58;;;;;;;;;;5092667;28;20234;-84
2022/07/07 12:26:46;;;;;;;3.97;3.67;;;;;;;;;;5092928;28;20249;-86
2022/07/07 12:29:13;;;;;;;6.60;3.80;;;;;;;;;;5092048;28;20184;-86
2022/07/07 12:31:40;;;;;;;3.42;3.20;;;;;;;;;;5092507;28;20218;-86
2022/07/07 12:34:11;;;;;;;3.65;3.35;;;;;;;;;;5092085;28;20197;-86
2022/07/07 12:36:39;;;;;;;7.45;4.15;;;;;;;;;;5092358;28;20249;-86
2022/07/07 12:39:08;;;;;;;4.53;4.22;;;;;;;;;;5092403;28;20196;-86
2022/07/07 12:41:37;;;;;;;4.32;4.03;;;;;;;;;;5092353;28;20220;-85
2022/07/07 12:44:15;;;;;;;4.13;3.83;;;;;;;;;;5092391;28;20201;-86
2022/07/07 12:46:42;;;;;;;3.85;3.55;;;;;;;;;;5094084;28;20196;-86
2022/07/07 12:49:09;;;;;;;4.30;4.00;;;;;;;;;;5095896;28;20193;-86
2022/07/07 12:51:38;;;;;;;4.35;4.05;;;;;;;;;;5096274;28;20258;-86
2022/07/07 12:54:05;;;;;;;4.40;4.00;;;;;;;;;;5095823;28;20226;-87
2022/07/07 12:56:36;;;;;;;5.40;4.72;;;;;;;;;;5095789;28;20279;-86
2022/07/07 12:59:18;;;;;;;5.70;4.50;;;;;;;;;;5095330;28;20235;-86
2022/07/07 13:01:49;;;;;;;5.18;4.28;;;;;;;;;;5095771;28;20300;-85
2022/07/07 13:04:16;;;;;;;4.47;4.07;;;;;;;;;;5096178;28;20587;-85
2022/07/07 13:06:45;;;;;;;4.95;4.65;;;;;;;;;;5095387;28;20317;-86
2022/07/07 13:09:12;;;;;;;8.20;6.15;;;;;;;;;;5095157;28;20200;-85
2022/07/07 13:11:41;;;;;;;4.70;4.40;;;;;;;;;;5095689;28;20196;-85
2022/07/07 13:14:08;;;;;;;4.93;4.53;;;;;;;;;;5095289;28;20184;-85
2022/07/07 13:16:35;;;;;;;5.53;5.13;;;;;;;;;;5095668;28;20249;-86
2022/07/07 13:19:02;;;;;;;4.75;4.45;;;;;;;;;;5095116;28;20193;-85
2022/07/07 13:21:29;;;;;;;5.67;5.17;;;;;;;;;;5095065;28;20228;-85
2022/07/07 13:23:56;;;;;;;5.88;5.28;;;;;;;;;;5095197;28;20197;-85
2022/07/07 13:26:23;;;;;;;6.33;5.83;;;;;;;;;;5095310;28;20207;-85
2022/07/07 13:28:52;;;;;;;5.77;5.27;;;;;;;;;;5095043;28;20196;-85
2022/07/07 13:31:20;;;;;;;8.27;5.10;;;;;;;;;;5095339;28;20196;-85
2022/07/07 13:33:47;;;;;;;5.17;4.87;;;;;;;;;;5095005;28;20730;-86
2022/07/07 13:36:14;;;;;;;6.22;5.82;;;;;;;;;;5095116;28;20615;-85
2022/07/07 13:38:41;;;;;;;6.30;5.82;;;;;;;;;;5094720;28;20200;-86
2022/07/07 13:41:08;;;;;;;5.40;5.10;;;;;;;;;;5094596;28;20223;-85
2022/07/07 13:43:35;;;;;;;5.43;5.03;;;;;;;;;;5094710;28;20261;-85
2022/07/07 13:46:04;;;;;;;5.83;5.43;;;;;;;;;;5094936;28;20273;-85
2022/07/07 13:48:31;;;;;;;6.23;5.73;;;;;;;;;;5094651;28;20192;-85
2022/07/07 13:50:58;;;;;;;5.78;5.25;;;;;;;;;;5094734;28;20188;-85
2022/07/07 13:53:25;;;;;;;6.43;5.35;;;;;;;;;;5094613;28;20192;-86
2022/07/07 13:55:52;;;;;;;6.30;5.80;;;;;;;;;;5094392;28;20196;-85
2022/07/07 13:58:19;;;;;;;7.13;6.47;;;;;;;;;;5094587;28;20253;-85
2022/07/07 14:00:46;;;;;;;6.60;6.00;;;;;;;;;;5093893;28;20267;-86
2022/07/07 14:03:15;;;;;;;6.37;5.83;;;;;;;;;;5094521;28;20665;-84
2022/07/07 14:05:42;;;;;;;8.57;7.03;;;;;;;;;;5094214;28;20196;-85
2022/07/07 14:08:09;;;;;;;7.47;6.83;;;;;;;;;;5091673;28;20738;-85
2022/07/07 14:10:36;;;;;;;6.80;6.30;;;;;;;;;;5092244;28;20692;-86
2022/07/07 14:13:03;;;;;;;9.80;7.23;;;;;;;;;;5093425;28;20196;-86
2022/07/07 14:15:30;;;;;;;6.37;5.87;;;;;;;;;;5094096;28;20220;-84
2022/07/07 14:17:57;;;;;;;6.73;6.10;;;;;;;;;;5094127;28;20231;-85
2022/07/07 14:20:26;;;;;;;6.93;6.27;;;;;;;;;;5094212;28;20605;-86
2022/07/07 14:22:53;;;;;;;6.87;6.17;;;;;;;;;;5094473;28;20680;-86
2022/07/07 14:25:20;;;;;;;6.80;6.20;;;;;;;;;;5093990;28;20254;-86
2022/07/07 14:27:47;;;;;;;6.70;6.20;;;;;;;;;;5093902;28;20196;-86
2022/07/07 14:30:14;;;;;;;6.30;5.67;;;;;;;;;;5093967;28;20196;-85
2022/07/07 14:32:41;;;;;;;6.30;5.90;;;;;;;;;;5094008;28;20192;-86
2022/07/07 14:35:09;;;;;;;6.70;6.10;;;;;;;;;;5093451;28;20733;-88
2022/07/07 14:37:37;;;;;;;5.90;5.50;;;;;;;;;;5093931;28;20249;-87
2022/07/07 14:40:05;;;;;;;5.93;5.43;;;;;;;;;;5093521;28;20196;-89
2022/07/07 14:42:32;;;;;;;5.53;5.13;;;;;;;;;;5093567;28;20223;-88
2022/07/07 14:44:59;;;;;;;6.07;5.67;;;;;;;;;;5093513;28;20228;-88
2022/07/07 14:47:26;;;;;;;5.40;5.00;;;;;;;;;;5093279;28;20196;-89
2022/07/07 14:49:54;;;;;;;5.53;5.13;;;;;;;;;;5072953;28;20231;-88
2022/07/07 14:52:21;;;;;;;5.37;4.97;;;;;;;;;;5087281;28;20287;-88